Time;durP1;ratioP1;P1;durP2;ratioP2;P2;SDS_P1;SDS_P2;PMS_P1;PMS_P2;Temp;Humidity;BMP_temperature;BMP_pressure;BME280_temperature;BME280_humidity;BME280_pressure;Samples;Min_cycle;Max_cycle;Signal;HPM_P1;HPM_P2
2023/09/22 00:00:54;;;;;;;8.23;4.97;;;;;;;21.80;74.09;100396.00;5033330;28;20068;-70
2023/09/22 00:03:20;;;;;;;8.98;4.35;;;;;;;21.87;73.65;100399.44;5031882;28;20018;-69
2023/09/22 00:05:46;;;;;;;6.95;4.40;;;;;;;21.87;74.18;100400.31;5032552;28;20029;-70
2023/09/22 00:08:12;;;;;;;8.30;4.55;;;;;;;21.95;73.61;100405.47;5032991;28;20064;-69
2023/09/22 00:10:38;;;;;;;8.05;3.90;;;;;;;21.81;73.13;100411.75;5032805;28;20030;-69
2023/09/22 00:13:04;;;;;;;14.85;6.78;;;;;;;21.25;74.27;100350.13;5033116;28;20037;-69
2023/09/22 00:15:29;;;;;;;15.38;6.25;;;;;;;21.20;74.72;100344.00;5031614;28;20501;-69
2023/09/22 00:17:55;;;;;;;19.85;8.20;;;;;;;21.59;75.01;100410.22;5032690;28;20029;-72
2023/09/22 00:20:22;;;;;;;8.35;4.78;;;;;;;21.62;74.98;100418.06;5032323;28;20029;-70
2023/09/22 00:22:47;;;;;;;8.32;4.18;;;;;;;21.41;76.02;100429.59;5032611;28;20095;-68
2023/09/22 00:25:13;;;;;;;15.23;5.05;;;;;;;21.19;77.29;100437.66;5032521;28;20476;-69
2023/09/22 00:27:39;;;;;;;7.05;3.95;;;;;;;20.84;77.63;100360.06;5032729;28;20059;-69
2023/09/22 00:30:05;;;;;;;9.65;4.55;;;;;;;21.33;77.48;100441.06;5048096;28;20026;-75
2023/09/22 00:32:31;;;;;;;7.25;4.47;;;;;;;21.26;77.17;100410.50;5032781;28;20069;-69
2023/09/22 00:34:56;;;;;;;9.95;4.43;;;;;;;21.45;77.27;100421.69;5032402;28;20053;-70
2023/09/22 00:37:22;;;;;;;7.13;4.55;;;;;;;21.49;77.38;100412.03;5032176;28;20056;-69
2023/09/22 00:39:48;;;;;;;7.43;4.63;;;;;;;21.61;76.99;100434.75;5031694;28;20049;-69
2023/09/22 00:42:13;;;;;;;12.60;5.47;;;;;;;21.52;76.23;100411.13;5032544;28;20033;-71
2023/09/22 00:44:39;;;;;;;8.35;5.03;;;;;;;21.63;77.09;100422.44;5032638;28;20049;-68
2023/09/22 00:47:09;;;;;;;13.40;5.25;;;;;;;21.48;76.70;100434.81;5031983;28;20100;-72
2023/09/22 00:49:35;;;;;;;9.90;4.93;;;;;;;21.03;75.91;100331.06;5032281;28;20029;-70
2023/09/22 00:52:02;;;;;;;7.25;4.70;;;;;;;21.66;76.23;100438.19;5032372;28;20032;-70
2023/09/22 00:54:28;;;;;;;11.57;5.07;;;;;;;21.53;77.24;100410.25;5031211;28;20077;-69
2023/09/22 00:56:53;;;;;;;10.23;5.38;;;;;;;21.64;76.72;100422.41;5023587;28;20066;-70
2023/09/22 00:59:20;;;;;;;9.15;4.63;;;;;;;21.60;76.63;100428.59;5017423;28;20036;-70
2023/09/22 01:01:45;;;;;;;10.88;4.80;;;;;;;21.61;76.04;100432.97;5030365;28;20041;-70
2023/09/22 01:04:12;;;;;;;12.75;5.00;;;;;;;21.50;76.35;100409.38;5027493;28;20021;-70
2023/09/22 01:06:39;;;;;;;9.20;5.47;;;;;;;21.71;75.62;100422.38;5021282;28;20065;-70
2023/09/22 01:09:09;;;;;;;12.30;5.38;;;;;;;21.80;75.14;100417.88;5022057;28;20029;-72
2023/09/22 01:11:34;;;;;;;11.85;5.65;;;;;;;21.83;74.55;100418.75;5022433;28;20029;-72
2023/09/22 01:14:01;;;;;;;9.73;5.25;;;;;;;21.81;75.46;100431.91;5021024;28;20033;-70
2023/09/22 01:16:27;;;;;;;14.02;6.25;;;;;;;21.74;74.89;100419.72;5020289;28;20070;-69
2023/09/22 01:18:53;;;;;;;13.13;7.10;;;;;;;21.70;75.10;100416.25;5025860;28;20029;-68
2023/09/22 01:21:18;;;;;;;11.07;5.47;;;;;;;21.78;74.38;100427.56;5022221;28;20036;-70
2023/09/22 01:23:44;;;;;;;8.50;4.93;;;;;;;21.39;74.02;100371.84;5022311;28;20465;-71
2023/09/22 01:26:09;;;;;;;7.68;5.15;;;;;;;21.69;74.91;100430.28;5020584;28;20025;-71
2023/09/22 01:28:35;;;;;;;11.38;4.63;;;;;;;21.70;74.71;100420.66;5020759;28;20021;-71
2023/09/22 01:31:01;;;;;;;11.30;5.03;;;;;;;21.20;74.92;100346.63;5020515;28;20029;-71
2023/09/22 01:33:27;;;;;;;8.30;5.38;;;;;;;21.63;75.71;100420.72;5019949;28;20071;-70
2023/09/22 01:35:53;;;;;;;10.90;6.10;;;;;;;20.89;75.45;100284.78;5021469;28;20072;-72
2023/09/22 01:38:19;;;;;;;12.60;5.93;;;;;;;21.71;75.07;100423.25;5021103;28;20018;-69
2023/09/22 01:40:45;;;;;;;10.35;5.25;;;;;;;21.47;75.14;100414.69;5019782;28;20026;-71
2023/09/22 01:43:11;;;;;;;9.75;5.78;;;;;;;21.35;75.97;100396.41;5021271;28;20396;-69
2023/09/22 01:45:38;;;;;;;12.50;5.45;;;;;;;21.40;76.00;100397.22;5020796;28;20034;-70
2023/09/22 01:48:04;;;;;;;10.57;5.38;;;;;;;21.32;75.83;100389.44;5018428;28;20038;-72
2023/09/22 01:50:37;;;;;;;12.82;5.90;;;;;;;21.17;76.99;100416.69;5021540;28;20067;-69
2023/09/22 01:53:05;;;;;;;7.97;5.25;;;;;;;21.06;77.66;100415.91;5002633;28;20412;-71
2023/09/22 01:55:30;;;;;;;8.82;5.25;;;;;;;20.77;79.58;100424.84;5022922;28;20038;-69
2023/09/22 01:57:56;;;;;;;8.52;5.65;;;;;;;20.36;81.30;100423.22;5011372;28;20025;-70
2023/09/22 02:00:21;;;;;;;9.50;5.93;;;;;;;20.30;81.58;100416.28;5010867;28;20100;-69
2023/09/22 02:02:46;;;;;;;11.27;5.53;;;;;;;20.17;82.17;100422.44;5010683;28;20026;-70
2023/09/22 02:05:14;;;;;;;7.85;5.70;;;;;;;19.99;82.82;100423.38;5010998;28;20057;-69
2023/09/22 02:07:40;;;;;;;9.55;5.85;;;;;;;20.07;83.16;100426.84;5010539;28;20029;-70
2023/09/22 02:10:09;;;;;;;16.02;6.68;;;;;;;19.96;83.35;100420.75;5010768;28;20030;-72
2023/09/22 02:12:35;;;;;;;10.88;5.68;;;;;;;19.85;84.73;100433.88;5010939;28;20486;-70
2023/09/22 02:15:01;;;;;;;10.40;5.75;;;;;;;19.72;84.74;100433.00;5010597;28;20076;-70
2023/09/22 02:17:27;;;;;;;9.25;5.13;;;;;;;19.64;84.31;100425.16;5010859;28;20033;-69
2023/09/22 02:19:53;;;;;;;8.93;5.50;;;;;;;19.38;84.31;100397.22;5009409;28;20018;-69
2023/09/22 02:22:18;;;;;;;9.00;6.55;;;;;;;19.41;85.42;100448.72;5010427;28;20048;-72
2023/09/22 02:24:44;;;;;;;10.18;5.53;;;;;;;19.34;86.33;100449.56;5010561;28;20113;-70
2023/09/22 02:27:09;;;;;;;8.93;5.15;;;;;;;19.32;86.45;100449.59;5010389;28;20033;-69
2023/09/22 02:29:35;;;;;;;10.38;5.32;;;;;;;19.28;85.95;100441.72;5010093;28;20022;-74
2023/09/22 02:32:00;;;;;;;9.82;5.20;;;;;;;18.93;85.94;100398.97;5010608;28;20025;-72
2023/09/22 02:34:26;;;;;;;9.45;5.78;;;;;;;19.00;86.73;100452.16;5010657;28;20120;-70
2023/09/22 02:36:52;;;;;;;8.48;5.07;;;;;;;18.84;87.86;100459.97;5010236;28;20066;-70
2023/09/22 02:39:17;;;;;;;7.55;4.57;;;;;;;18.65;88.94;100460.75;5009861;28;20100;-69
2023/09/22 02:41:42;;;;;;;7.93;5.35;;;;;;;18.64;89.38;100459.00;5010654;28;20037;-70
2023/09/22 02:44:09;;;;;;;9.85;5.43;;;;;;;18.70;89.55;100465.13;5009979;28;20482;-70
2023/09/22 02:46:35;;;;;;;8.80;5.15;;;;;;;18.57;90.04;100472.06;4991653;28;20673;-70
2023/09/22 02:49:01;;;;;;;8.45;5.32;;;;;;;18.57;90.04;100461.59;5010226;28;20032;-70
2023/09/22 02:51:26;;;;;;;8.25;4.97;;;;;;;18.67;89.55;100459.03;5010219;28;20037;-69
2023/09/22 02:53:54;;;;;;;10.07;5.72;;;;;;;18.75;89.45;100459.91;5010229;28;20026;-70
2023/09/22 02:56:20;;;;;;;7.38;5.07;;;;;;;18.68;89.87;100472.09;5010096;28;20030;-69
2023/09/22 02:58:46;;;;;;;9.65;5.70;;;;;;;18.70;89.43;100459.88;5009844;28;20405;-69
2023/09/22 03:01:14;;;;;;;8.90;5.07;;;;;;;18.47;89.13;100397.09;5010265;28;20030;-68
2023/09/22 03:03:42;;;;;;;12.00;5.10;;;;;;;18.86;88.68;100470.41;5010005;28;20081;-70
2023/09/22 03:06:12;;;;;;;10.25;5.38;;;;;;;18.73;89.37;100462.53;5009966;28;20084;-70
2023/09/22 03:08:38;;;;;;;9.05;5.32;;;;;;;18.90;88.81;100462.63;5010205;28;20022;-70
2023/09/22 03:11:04;;;;;;;9.05;5.43;;;;;;;19.12;86.71;100456.56;5009971;28;20034;-72
2023/09/22 03:13:30;;;;;;;9.85;5.28;;;;;;;19.23;85.69;100453.06;5010357;28;20022;-73
2023/09/22 03:15:55;;;;;;;10.15;4.93;;;;;;;18.26;85.60;100306.41;5015461;28;20030;-70
2023/09/22 03:18:21;;;;;;;9.05;5.78;;;;;;;19.09;86.05;100460.03;5029795;28;20033;-69
2023/09/22 03:20:46;;;;;;;9.57;5.50;;;;;;;18.36;86.20;100341.28;5029844;28;20041;-70
2023/09/22 03:23:12;;;;;;;11.63;5.18;;;;;;;18.67;88.27;100472.09;5029324;28;20022;-70
2023/09/22 03:25:39;;;;;;;8.05;5.70;;;;;;;18.68;89.02;100465.97;5029344;28;20156;-71
2023/09/22 03:28:05;;;;;;;8.68;5.90;;;;;;;18.82;88.52;100446.00;5029793;28;20121;-71
2023/09/22 03:30:31;;;;;;;12.20;5.80;;;;;;;18.87;87.70;100453.84;5029731;28;20560;-70
2023/09/22 03:32:58;;;;;;;12.82;5.80;;;;;;;18.74;88.45;100451.22;5029882;28;20032;-70
2023/09/22 03:35:25;;;;;;;9.55;5.25;;;;;;;18.73;88.48;100473.00;5029388;28;20033;-72
2023/09/22 03:37:52;;;;;;;12.98;6.15;;;;;;;18.52;89.07;100444.16;5029614;28;20030;-69
2023/09/22 03:40:24;;;;;;;9.43;6.10;;;;;;;18.65;88.98;100474.69;5029230;28;20057;-71
2023/09/22 03:42:50;;;;;;;15.70;6.32;;;;;;;18.11;91.00;100453.53;5029470;28;20029;-69
2023/09/22 03:45:15;;;;;;;8.50;5.28;;;;;;;18.08;92.54;100482.25;5029639;28;20504;-70
2023/09/22 03:47:41;;;;;;;9.25;5.72;;;;;;;18.14;92.67;100482.28;5029458;28;20029;-70
2023/09/22 03:50:07;;;;;;;12.45;6.93;;;;;;;18.30;92.17;100483.25;5044706;28;20845;-69
2023/09/22 03:52:33;;;;;;;12.80;6.03;;;;;;;18.26;92.60;100477.13;5032521;28;20033;-73
2023/09/22 03:54:58;;;;;;;8.80;6.13;;;;;;;18.16;93.14;100483.19;5014177;28;20052;-70
2023/09/22 03:57:23;;;;;;;15.93;6.20;;;;;;;17.94;93.53;100470.00;5033015;28;20160;-69
2023/09/22 03:59:49;;;;;;;15.02;6.43;;;;;;;18.19;92.89;100496.25;5032807;28;20037;-70
2023/09/22 04:02:15;;;;;;;10.55;5.50;;;;;;;18.20;92.91;100495.38;5033257;28;20025;-73
2023/09/22 04:04:40;;;;;;;12.35;5.90;;;;;;;18.28;92.43;100485.00;5033222;28;20397;-71
2023/09/22 04:07:06;;;;;;;12.60;5.60;;;;;;;18.49;91.41;100485.97;5032854;28;20025;-73
2023/09/22 04:09:31;;;;;;;10.93;6.03;;;;;;;18.67;90.33;100493.88;5032543;28;20401;-70
2023/09/22 04:11:57;;;;;;;13.38;5.50;;;;;;;18.74;85.90;100500.00;5033203;28;20037;-70
2023/09/22 04:14:23;;;;;;;16.48;5.75;;;;;;;18.78;84.97;100490.44;5032923;28;20041;-71
2023/09/22 04:16:49;;;;;;;11.43;5.93;;;;;;;18.92;84.11;100489.63;5032602;28;20049;-70
2023/09/22 04:19:14;;;;;;;12.45;5.25;;;;;;;19.13;82.32;100490.56;5032670;28;20036;-70
2023/09/22 04:21:44;;;;;;;12.23;5.47;;;;;;;19.27;82.95;100502.81;5032423;28;20028;-70
2023/09/22 04:24:11;;;;;;;17.33;5.85;;;;;;;19.24;84.19;100501.06;5032253;28;20103;-70
2023/09/22 04:26:42;;;;;;;12.27;5.70;;;;;;;19.26;84.55;100488.84;5013530;28;20095;-69
2023/09/22 04:29:09;;;;;;;10.02;5.63;;;;;;;19.34;84.56;100481.00;5032558;28;20115;-70
2023/09/22 04:31:34;;;;;;;9.90;5.32;;;;;;;19.35;83.75;100461.81;5032521;28;20025;-71
2023/09/22 04:34:01;;;;;;;15.82;5.55;;;;;;;19.38;82.90;100465.28;5032431;28;20033;-70
2023/09/22 04:36:26;;;;;;;12.15;5.47;;;;;;;19.56;82.63;100469.69;5013453;28;20093;-71
2023/09/22 04:38:52;;;;;;;11.63;6.38;;;;;;;19.36;82.91;100427.75;5032308;28;20123;-69
2023/09/22 04:41:21;;;;;;;10.32;5.95;;;;;;;19.72;82.82;100480.13;5032411;28;20512;-70
2023/09/22 04:43:47;;;;;;;8.93;5.65;;;;;;;19.85;82.18;100491.50;5032257;28;20583;-75
2023/09/22 04:46:13;;;;;;;13.27;5.80;;;;;;;19.77;83.78;100488.00;5026750;28;20819;-74
2023/09/22 04:48:39;;;;;;;14.82;6.28;;;;;;;19.73;84.72;100488.00;5012798;28;20497;-71
2023/09/22 04:51:05;;;;;;;10.85;5.63;;;;;;;19.59;84.68;100484.53;5030041;28;20068;-70
2023/09/22 04:53:32;;;;;;;10.95;6.50;;;;;;;19.56;84.58;100472.31;5031918;28;20026;-70
2023/09/22 04:56:03;;;;;;;11.20;5.95;;;;;;;19.55;84.48;100475.78;5032102;28;20029;-70
2023/09/22 04:58:33;;;;;;;8.88;6.35;;;;;;;19.62;84.51;100484.50;5047308;28;20104;-70
2023/09/22 05:01:01;;;;;;;10.07;5.90;;;;;;;19.34;83.96;100436.50;5013529;28;20041;-71
2023/09/22 05:03:28;;;;;;;9.00;6.30;;;;;;;19.62;84.13;100484.50;5031402;28;20038;-70
2023/09/22 05:05:54;;;;;;;12.90;7.22;;;;;;;19.57;85.36;100488.88;5030527;28;20041;-69
2023/09/22 05:08:20;;;;;;;14.65;7.03;;;;;;;19.39;85.23;100487.13;5032039;28;20043;-69
2023/09/22 05:10:49;;;;;;;15.07;7.35;;;;;;;19.42;85.47;100475.78;5031285;28;20037;-69
2023/09/22 05:13:18;;;;;;;10.02;6.97;;;;;;;19.26;86.69;100485.38;5031778;28;20123;-75
2023/09/22 05:15:45;;;;;;;11.63;7.07;;;;;;;19.13;87.62;100492.31;5031530;28;20038;-69
2023/09/22 05:18:14;;;;;;;11.38;7.28;;;;;;;19.17;87.83;100476.63;5029824;28;20021;-71
2023/09/22 05:20:42;;;;;;;16.35;7.63;;;;;;;19.32;87.30;100477.53;5031347;28;20472;-71
2023/09/22 05:23:09;;;;;;;12.98;7.18;;;;;;;19.44;86.62;100479.25;5031564;28;20102;-70
2023/09/22 05:25:40;;;;;;;13.43;7.43;;;;;;;19.55;86.26;100491.50;5031276;28;20017;-70
2023/09/22 05:28:10;;;;;;;14.93;7.82;;;;;;;19.54;86.28;100502.84;5031030;28;20025;-70
2023/09/22 05:30:40;;;;;;;17.10;8.18;;;;;;;19.50;86.93;100498.47;5031065;28;20025;-70
2023/09/22 05:33:07;;;;;;;15.23;8.40;;;;;;;19.44;87.39;100515.91;5031320;28;20147;-69
2023/09/22 05:35:37;;;;;;;12.07;7.97;;;;;;;19.22;88.80;100519.38;5031422;28;20025;-70
2023/09/22 05:38:03;;;;;;;;;;;;;;;19.15;89.83;100520.25;5031526;28;20069;-70
2023/09/22 05:40:32;;;;;;;12.48;8.43;;;;;;;19.05;90.79;100529.81;5030905;28;20426;-69
2023/09/22 05:42:58;;;;;;;18.60;9.00;;;;;;;19.10;90.81;100527.19;5012294;28;20033;-69
2023/09/22 05:45:23;;;;;;;14.57;8.18;;;;;;;19.08;91.25;100534.19;5030469;28;20421;-70
2023/09/22 05:47:48;;;;;;;11.18;8.55;;;;;;;19.06;90.89;100526.31;5030740;28;20104;-69
2023/09/22 05:50:16;;;;;;;13.00;7.97;;;;;;;19.28;91.90;100541.19;5030675;28;20409;-69
2023/09/22 05:52:42;;;;;;;10.35;7.75;;;;;;;19.33;91.39;100539.47;5030672;28;20480;-70
2023/09/22 05:55:08;;;;;;;15.80;8.15;;;;;;;19.44;91.02;100543.00;5030608;28;20048;-69
2023/09/22 05:57:34;;;;;;;15.02;7.68;;;;;;;19.65;90.45;100551.72;5030675;28;20397;-69
2023/09/22 06:00:00;;;;;;;15.00;7.63;;;;;;;19.12;90.26;100474.88;5030498;28;20041;-70
2023/09/22 06:02:25;;;;;;;14.57;8.32;;;;;;;19.49;90.36;100549.09;5031196;28;20059;-69
2023/09/22 06:04:55;;;;;;;14.43;7.97;;;;;;;19.65;89.78;100555.22;5030153;28;20037;-74
2023/09/22 06:07:20;;;;;;;12.00;7.78;;;;;;;19.64;89.90;100563.97;5030616;28;20033;-70
2023/09/22 06:09:46;;;;;;;15.57;7.95;;;;;;;19.76;91.09;100568.31;5030462;28;20041;-70
2023/09/22 06:12:11;;;;;;;12.90;7.72;;;;;;;19.93;90.54;100565.75;5030619;28;20051;-70
2023/09/22 06:14:39;;;;;;;14.18;7.85;;;;;;;19.49;89.01;100491.50;5029081;28;20542;-72
2023/09/22 06:17:04;;;;;;;14.38;8.35;;;;;;;19.99;89.12;100567.50;5030028;28;20075;-70
2023/09/22 06:19:30;;;;;;;14.00;7.68;;;;;;;20.19;88.36;100564.88;5021014;28;20588;-69
2023/09/22 06:21:56;;;;;;;11.55;7.85;;;;;;;20.17;88.37;100563.97;5029713;28;20029;-70
2023/09/22 06:24:21;;;;;;;12.70;7.53;;;;;;;20.12;88.57;100560.50;5030102;28;20025;-69
2023/09/22 06:26:47;;;;;;;12.95;7.05;;;;;;;19.78;88.02;100495.00;5030159;28;20531;-70
2023/09/22 06:29:12;;;;;;;12.98;6.93;;;;;;;20.42;87.96;100561.31;5030000;28;20033;-70
2023/09/22 06:31:38;;;;;;;12.60;6.70;;;;;;;20.25;87.65;100504.56;5030414;28;20029;-70
2023/09/22 06:34:05;;;;;;;13.50;6.45;;;;;;;20.79;87.32;100559.50;5030172;28;20029;-70
2023/09/22 06:36:30;;;;;;;8.65;5.93;;;;;;;20.88;84.18;100555.94;5030101;28;20095;-70
2023/09/22 06:38:56;;;;;;;13.70;6.55;;;;;;;20.95;83.63;100562.94;5029920;28;20113;-70
2023/09/22 06:41:21;;;;;;;11.70;6.20;;;;;;;21.12;83.74;100560.22;5029870;28;20049;-70
2023/09/22 06:43:47;;;;;;;11.30;6.60;;;;;;;20.96;81.95;100500.78;5044222;28;20041;-72
2023/09/22 06:46:14;;;;;;;13.23;6.60;;;;;;;21.50;83.00;100556.47;5030114;28;20036;-69
2023/09/22 06:48:39;;;;;;;10.88;6.25;;;;;;;21.37;81.94;100490.94;5030111;28;20034;-70
2023/09/22 06:51:06;;;;;;;12.00;6.50;;;;;;;21.90;81.32;100565.84;5029955;28;20444;-70
2023/09/22 06:53:34;;;;;;;12.07;6.57;;;;;;;21.98;80.81;100552.63;5029899;28;20026;-70
2023/09/22 06:56:08;;;;;;;16.65;6.47;;;;;;;21.92;79.54;100532.56;5030048;28;20025;-71
2023/09/22 06:58:36;;;;;;;10.50;6.43;;;;;;;22.16;81.54;100577.91;5029757;28;20377;-69
2023/09/22 07:01:11;;;;;;;10.80;6.47;;;;;;;22.20;79.93;100576.97;5029906;28;20029;-69
2023/09/22 07:03:38;;;;;;;11.75;6.35;;;;;;;22.29;77.88;100584.81;5030072;28;20033;-69
2023/09/22 07:06:10;;;;;;;10.90;6.50;;;;;;;22.29;79.67;100563.75;5029476;28;20507;-69
2023/09/22 07:08:36;;;;;;;12.77;6.43;;;;;;;22.30;78.98;100572.50;5029287;28;20026;-71
2023/09/22 07:11:10;;;;;;;8.98;5.95;;;;;;;22.21;79.31;100559.47;5029981;28;20108;-69
2023/09/22 07:13:40;;;;;;;11.85;5.65;;;;;;;22.14;78.66;100529.72;5029813;28;20029;-69
2023/09/22 07:16:09;;;;;;;9.73;5.78;;;;;;;22.37;78.84;100554.91;5029978;28;20087;-74
2023/09/22 07:18:35;;;;;;;9.10;5.70;;;;;;;22.01;79.69;100486.03;5027519;28;20065;-71
2023/09/22 07:21:21;;;;;;;11.45;5.95;;;;;;;22.52;78.69;100557.41;5013071;28;20061;-69
2023/09/22 07:23:47;;;;;;;7.25;5.53;;;;;;;22.59;78.79;100551.19;5027213;28;20037;-76
2023/09/22 07:26:12;;;;;;;7.82;5.43;;;;;;;22.72;77.54;100551.91;5029761;28;20033;-70
2023/09/22 07:28:39;;;;;;;8.02;5.70;;;;;;;22.81;79.18;100553.56;5031081;28;20036;-71
2023/09/22 07:31:11;;;;;;;10.85;5.35;;;;;;;22.59;76.06;100493.31;5031014;28;20052;-68
2023/09/22 07:33:37;;;;;;;8.80;5.60;;;;;;;23.17;75.63;100561.03;5030637;28;20029;-70
2023/09/22 07:36:02;;;;;;;8.02;4.63;;;;;;;23.23;74.19;100553.06;5030725;28;20108;-70
2023/09/22 07:38:29;;;;;;;7.60;4.90;;;;;;;23.35;72.97;100555.53;5031016;28;20040;-70
2023/09/22 07:40:56;;;;;;;9.85;5.78;;;;;;;23.52;73.98;100551.75;5030805;28;20120;-69
2023/09/22 07:43:28;;;;;;;9.82;5.68;;;;;;;23.64;74.10;100545.41;4991951;28;20522;-74
2023/09/22 07:45:54;;;;;;;11.80;5.18;;;;;;;23.62;71.72;100532.25;5018784;28;20030;-70
2023/09/22 07:48:19;;;;;;;9.35;5.85;;;;;;;23.57;71.38;100499.84;5028069;28;20083;-70
2023/09/22 07:50:45;;;;;;;8.45;5.35;;;;;;;23.94;72.81;100535.28;5029713;28;20116;-70
2023/09/22 07:53:10;;;;;;;13.50;5.78;;;;;;;24.04;71.24;100540.38;5029953;28;20526;-70
2023/09/22 07:55:38;;;;;;;8.93;5.50;;;;;;;24.11;70.58;100534.97;5032912;28;20528;-69
2023/09/22 07:58:04;;;;;;;9.80;5.45;;;;;;;24.19;70.20;100530.44;5047980;28;20056;-72
2023/09/22 08:00:29;;;;;;;10.13;5.78;;;;;;;24.19;70.12;100528.66;5032615;28;20111;-68
2023/09/22 08:02:55;;;;;;;7.88;5.25;;;;;;;24.41;69.27;100536.16;5032163;28;20030;-73
2023/09/22 08:05:21;;;;;;;10.65;5.95;;;;;;;24.49;68.73;100525.47;5032388;28;20044;-71
2023/09/22 08:07:49;;;;;;;11.05;5.75;;;;;;;24.64;69.60;100519.88;5032158;28;20037;-69
2023/09/22 08:10:17;;;;;;;9.02;5.97;;;;;;;24.67;68.46;100511.94;5032552;28;20022;-68
2023/09/22 08:12:43;;;;;;;9.27;5.38;;;;;;;24.88;67.82;100515.00;5031257;28;20386;-69
2023/09/22 08:15:09;;;;;;;10.95;5.85;;;;;;;24.86;67.36;100506.25;5032110;28;20473;-70
2023/09/22 08:17:35;;;;;;;9.48;6.00;;;;;;;25.01;67.72;100516.50;5032329;28;20040;-70
2023/09/22 08:20:01;;;;;;;9.85;5.88;;;;;;;25.06;69.54;100512.88;5031951;28;20025;-70
2023/09/22 08:22:27;;;;;;;8.75;5.55;;;;;;;25.19;71.25;100516.97;5031747;28;20025;-73
2023/09/22 08:24:53;;;;;;;9.45;5.93;;;;;;;24.91;70.73;100464.78;5029619;28;20064;-71
2023/09/22 08:27:19;;;;;;;8.65;5.70;;;;;;;25.30;69.71;100512.31;5031852;28;20034;-70
2023/09/22 08:29:48;;;;;;;8.95;5.43;;;;;;;25.26;67.80;100499.19;5031733;28;20463;-70
2023/09/22 08:32:13;;;;;;;9.97;5.13;;;;;;;25.43;65.84;100506.75;5029635;28;20442;-69
2023/09/22 08:34:40;;;;;;;10.27;5.55;;;;;;;25.54;68.22;100501.22;5031573;28;20438;-70
2023/09/22 08:37:06;;;;;;;8.15;4.82;;;;;;;25.68;66.61;100507.91;5028358;28;20058;-71
2023/09/22 08:39:32;;;;;;;7.95;4.93;;;;;;;25.77;64.43;100500.63;5031345;28;20036;-71
2023/09/22 08:42:01;;;;;;;8.18;4.97;;;;;;;25.74;63.94;100479.56;5031254;28;20098;-69
2023/09/22 08:44:27;;;;;;;9.02;4.80;;;;;;;25.66;65.03;100434.81;5028849;28;20134;-70
2023/09/22 08:46:52;;;;;;;7.18;4.90;;;;;;;26.13;66.48;100496.19;5031620;28;20030;-71
2023/09/22 08:49:21;;;;;;;8.55;4.50;;;;;;;26.21;63.58;100495.13;5031813;28;20036;-73
2023/09/22 08:51:48;;;;;;;8.18;5.35;;;;;;;26.31;63.59;100497.44;5028976;28;20021;-71
2023/09/22 08:54:13;;;;;;;8.77;4.72;;;;;;;26.25;64.82;100483.53;5030209;28;20024;-70
2023/09/22 08:56:39;;;;;;;8.63;5.10;;;;;;;26.40;66.23;100490.16;5029145;28;20034;-70
2023/09/22 08:59:05;;;;;;;10.68;5.38;;;;;;;26.62;66.11;100491.25;5028339;28;20025;-73
2023/09/22 09:01:31;;;;;;;7.18;4.53;;;;;;;26.74;61.22;100491.84;5031048;28;20499;-70
2023/09/22 09:03:59;;;;;;;6.55;4.40;;;;;;;26.75;61.13;100465.31;5031159;28;20116;-71
2023/09/22 09:06:24;;;;;;;6.68;5.00;;;;;;;27.02;61.26;100477.78;5029699;28;20125;-70
2023/09/22 09:09:03;;;;;;;10.05;4.57;;;;;;;27.15;59.48;100481.75;5031617;28;20041;-69
2023/09/22 09:11:29;;;;;;;8.30;4.28;;;;;;;26.90;59.24;100407.47;5029802;28;20051;-69
2023/09/22 09:13:54;;;;;;;9.32;4.53;;;;;;;27.12;60.59;100434.16;5031266;28;20029;-69
2023/09/22 09:16:33;;;;;;;7.03;4.60;;;;;;;27.02;62.03;100407.09;5026844;28;20083;-71
2023/09/22 09:19:17;;;;;;;8.25;4.68;;;;;;;27.49;61.30;100467.44;5029708;28;20117;-71
2023/09/22 09:22:05;;;;;;;10.00;4.57;;;;;;;27.57;58.40;100460.06;5030816;28;20408;-71
2023/09/22 09:24:31;;;;;;;9.27;4.95;;;;;;;27.72;57.71;100455.16;5030349;28;20029;-70
2023/09/22 09:26:57;;;;;;;8.07;4.95;;;;;;;27.75;62.21;100437.38;5030616;28;20037;-70
2023/09/22 09:29:29;;;;;;;8.93;4.78;;;;;;;27.91;60.97;100453.59;5030542;28;20041;-70
2023/09/22 09:32:00;;;;;;;7.22;4.43;;;;;;;27.85;56.98;100458.25;5039193;28;20039;-74
2023/09/22 09:34:39;;;;;;;8.70;4.28;;;;;;;27.81;58.86;100428.31;5030030;28;20030;-70
2023/09/22 09:37:13;;;;;;;8.00;4.38;;;;;;;27.96;57.62;100439.31;5029686;28;20057;-70
2023/09/22 09:39:49;;;;;;;7.72;4.90;;;;;;;28.28;56.69;100461.19;5011744;28;20542;-70
2023/09/22 09:42:19;;;;;;;9.07;4.55;;;;;;;28.43;56.26;100451.78;5030647;28;20096;-71
2023/09/22 09:44:50;;;;;;;7.53;4.43;;;;;;;28.43;56.81;100443.81;5030265;28;20022;-72
2023/09/22 09:47:22;;;;;;;10.90;5.00;;;;;;;28.50;56.43;100456.78;5030875;28;20037;-74
2023/09/22 09:49:51;;;;;;;7.88;4.40;;;;;;;28.67;55.13;100449.97;5029475;28;20029;-70
2023/09/22 09:52:22;;;;;;;12.63;4.45;;;;;;;28.85;55.85;100445.75;5030069;28;20424;-75
2023/09/22 09:54:56;;;;;;;10.45;4.47;;;;;;;28.83;57.90;100440.47;5011855;28;20091;-72
2023/09/22 09:57:23;;;;;;;6.80;4.40;;;;;;;28.92;55.37;100435.75;5030026;28;20026;-75
2023/09/22 09:59:49;;;;;;;6.65;4.20;;;;;;;28.98;53.97;100427.53;5030269;28;20037;-68
2023/09/22 10:02:15;;;;;;;13.63;4.68;;;;;;;28.88;57.35;100432.34;5007066;28;20045;-74
2023/09/22 10:04:42;;;;;;;7.88;4.22;;;;;;;28.57;55.87;100375.97;5027947;28;20132;-71
2023/09/22 10:07:08;;;;;;;9.50;4.20;;;;;;;29.05;56.76;100421.88;5029963;28;20022;-72
2023/09/22 10:09:34;;;;;;;7.55;4.60;;;;;;;29.25;55.84;100416.66;5011170;28;20497;-70
2023/09/22 10:12:00;;;;;;;6.72;4.68;;;;;;;29.42;52.41;100427.47;5024696;28;20051;-71
2023/09/22 10:14:46;;;;;;;8.25;4.60;;;;;;;29.68;51.86;100414.84;5025681;28;20437;-71
2023/09/22 10:17:24;;;;;;;7.00;4.50;;;;;;;29.88;52.80;100410.47;5029146;28;20079;-72
2023/09/22 10:19:50;;;;;;;5.93;3.80;;;;;;;30.01;50.71;100406.34;5026793;28;20354;-70
2023/09/22 10:22:15;;;;;;;8.93;4.03;;;;;;;30.15;51.85;100406.56;5030196;28;20033;-72
2023/09/22 10:24:42;;;;;;;6.18;4.22;;;;;;;30.20;50.05;100393.06;5029922;28;20028;-70
2023/09/22 10:27:16;;;;;;;8.13;4.80;;;;;;;30.40;51.97;100401.91;5029891;28;20116;-71
2023/09/22 10:29:51;;;;;;;9.23;4.35;;;;;;;30.40;51.44;100385.94;5027505;28;20052;-72
2023/09/22 10:32:26;;;;;;;10.88;4.05;;;;;;;30.42;49.17;100389.38;5029604;28;20059;-71
2023/09/22 10:35:06;;;;;;;6.47;4.13;;;;;;;30.43;48.63;100373.34;5029442;28;20116;-71
2023/09/22 10:37:35;;;;;;;10.27;4.18;;;;;;;30.57;51.11;100374.47;5011038;28;20463;-70
2023/09/22 10:40:16;;;;;;;;;;;;;;;30.56;48.85;100380.78;5027556;28;20029;-70
2023/09/22 10:42:52;;;;;;;7.90;3.60;;;;;;;30.45;48.34;100335.97;5027333;28;19924;-73
2023/09/22 10:45:21;;;;;;;7.47;4.40;;;;;;;30.74;47.83;100368.34;5029545;28;20060;-74
2023/09/22 10:47:51;;;;;;;8.80;4.50;;;;;;;30.85;47.65;100360.69;5027696;28;20025;-71
2023/09/22 10:50:30;;;;;;;10.65;3.95;;;;;;;31.04;46.70;100362.41;5026605;28;20416;-70
2023/09/22 10:53:09;;;;;;;9.23;4.45;;;;;;;30.99;47.09;100354.66;5025750;28;20041;-70
2023/09/22 10:55:37;;;;;;;9.75;4.78;;;;;;;30.99;46.34;100330.66;5026693;28;20041;-71
2023/09/22 10:58:21;;;;;;;7.90;4.53;;;;;;;31.15;46.30;100352.09;5026593;28;20038;-71
2023/09/22 11:01:18;;;;;;;8.85;4.60;;;;;;;31.24;45.72;100348.09;5025217;28;20022;-70
2023/09/22 11:03:53;;;;;;;8.20;4.45;;;;;;;31.26;45.36;100348.91;5026839;28;20568;-72
2023/09/22 11:06:19;;;;;;;7.90;4.63;;;;;;;31.33;46.72;100338.75;5026595;28;20033;-74
2023/09/22 11:08:52;;;;;;;9.00;4.57;;;;;;;31.36;45.56;100334.13;5026878;28;20593;-73
2023/09/22 11:11:18;;;;;;;11.07;4.78;;;;;;;31.03;46.12;100291.38;5026927;28;20022;-75
2023/09/22 11:14:10;;;;;;;6.68;4.40;;;;;;;31.42;44.91;100331.16;5026737;28;20041;-71
2023/09/22 11:16:35;;;;;;;10.45;4.43;;;;;;;31.44;44.94;100326.59;4949883;28;20559;-72
2023/09/22 11:19:11;;;;;;;9.50;4.53;;;;;;;31.65;45.31;100325.56;4968087;28;20035;-72
2023/09/22 11:21:41;;;;;;;7.22;4.35;;;;;;;31.70;44.35;100313.72;4967897;28;20042;-71
2023/09/22 11:24:08;;;;;;;7.65;4.15;;;;;;;31.46;44.32;100292.69;4977131;28;20051;-71